Strona główna
METAR-TAF:

METAR-TAF

Lotnisko :

Leeming, Anglia

Szerokość geograficzna: 54-18N, Długość geograficzna: 001-32W, wysokość: 40 m

Aktualna obserwacja pogody

Raport powstał 1 godzina i 15 minut temu, godzina 13:50 UTC
Wiatr 6 kt od wschodnio-południowy wschód
Temperatura 12°C
Wilgotność 67%
Ciśnienie 999 hPa
Widzialność 10 km lub więcej

METAR: EGXE 151350Z AUTO 12006KT 9999 SCT039/// BKN045/// 12/06 Q0999

czas: 16:05 (15:05 UTC)

Prognoza

Raport powstał 28 godziny i 37 minut temu, godzina 10:28 UTC
Prognoza ważna od 14 godzina 12 UTC do 14 godzina 17 UTC
Wiatr 4 kt od północno-północny wschód
Widzialność 10 km lub więcej
Przerywane chmury na wysokości 2000 ft
Stopniowe zmiany
od 14 godzina 12 UTC do 14 godzina 14 UTC
Rozproszone chmury na wysokości 2500 ft

TAF: EGXE 141028Z 1412/1417 03004KT 9999 BKN020 BECMG 1412/1414 SCT025

Obserwacja i prognoza pogody dla ponad 4000 lotnisk (raport METAR i TAF).

Dostępne stacje oznaczono żółtymi i czerwonymi punktami na mapie.

Najedź kursorem aby zobaczyć nazwę stacji.

Kliknij aby zobaczyć obserwacje i prognozy pogody.

Aby zmienić mapę: kliknij na zielony przycisk z czarnym krzyżykiem, aby powiększyć; na zielony przycisk z myślnikiem, aby pomniejszyć; na zielone strzałki, aby przejść do map sąsiednich.


METAR-TAF: